Time;durP1;ratioP1;P1;durP2;ratioP2;P2;SDS_P1;SDS_P2;PMS_P1;PMS_P2;Temp;Humidity;BMP_temperature;BMP_pressure;BME280_temperature;BME280_humidity;BME280_pressure;Samples;Min_cycle;Max_cycle;Signal;HPM_P1;HPM_P2
2024/03/18 00:02:14;;;;;;;1999.90;999.90;;;22.30;99.90;;;;;;5011341;28;20052;-76
2024/03/18 00:04:40;;;;;;;1999.90;999.90;;;22.30;99.90;;;;;;5012425;28;20022;-72
2024/03/18 00:07:06;;;;;;;1999.90;999.90;;;22.30;99.90;;;;;;5012327;28;20408;-72
2024/03/18 00:09:31;;;;;;;1999.90;999.90;;;22.30;99.90;;;;;;5012477;28;20029;-73
2024/03/18 00:11:57;;;;;;;1999.90;999.90;;;22.30;99.90;;;;;;5012721;28;20555;-77
2024/03/18 00:14:22;;;;;;;1999.90;999.90;;;22.30;99.90;;;;;;5012468;28;20104;-77
2024/03/18 00:16:48;;;;;;;1999.90;999.90;;;22.30;99.90;;;;;;5012690;28;20396;-73
2024/03/18 00:19:14;;;;;;;1999.90;999.90;;;22.30;99.90;;;;;;5012702;28;20049;-73
2024/03/18 00:21:39;;;;;;;1999.90;999.90;;;22.40;99.90;;;;;;5011317;28;20540;-77
2024/03/18 00:24:05;;;;;;;1999.90;999.90;;;22.40;99.90;;;;;;4992703;28;20021;-76
2024/03/18 00:26:32;;;;;;;1999.90;999.90;;;22.40;99.90;;;;;;4992906;28;20038;-72
2024/03/18 00:28:58;;;;;;;1999.90;999.90;;;22.30;99.90;;;;;;5001386;28;20018;-77
2024/03/18 00:31:24;;;;;;;1999.90;999.90;;;22.40;99.90;;;;;;5012672;28;20461;-72
2024/03/18 00:33:50;;;;;;;1999.90;999.90;;;22.30;99.90;;;;;;5013026;28;20072;-77
2024/03/18 00:36:15;;;;;;;1999.90;999.90;;;22.30;99.90;;;;;;5012163;28;20112;-77
2024/03/18 00:38:41;;;;;;;1999.90;999.90;;;22.30;99.90;;;;;;5013093;28;20057;-77
2024/03/18 00:43:52;;;;;;;1999.90;999.90;;;22.40;99.90;;;;;;5016140;28;20061;-72
2024/03/18 00:46:18;;;;;;;1999.90;999.90;;;22.40;99.90;;;;;;5016290;28;20364;-72
2024/03/18 00:48:44;;;;;;;1999.90;999.90;;;22.40;99.90;;;;;;5016162;28;20030;-77
2024/03/18 00:51:11;;;;;;;1999.90;999.90;;;22.40;99.90;;;;;;5015938;28;20026;-72
2024/03/18 00:53:36;;;;;;;1999.90;999.90;;;22.30;99.90;;;;;;5016063;28;20493;-76
2024/03/18 00:56:06;;;;;;;1999.90;999.90;;;22.40;99.90;;;;;;5015660;28;20029;-72
2024/03/18 00:58:33;;;;;;;1999.90;999.90;;;22.40;99.90;;;;;;5014881;28;20041;-72
2024/03/18 01:00:59;;;;;;;1999.90;999.90;;;22.40;99.90;;;;;;5015682;28;20038;-76
2024/03/18 01:03:24;;;;;;;1999.90;999.90;;;22.40;99.90;;;;;;5015667;28;20507;-76
2024/03/18 01:05:50;;;;;;;1999.90;999.90;;;22.40;99.90;;;;;;5015701;28;20032;-77
2024/03/18 01:08:16;;;;;;;1999.90;999.90;;;22.40;99.90;;;;;;5015339;28;20026;-72
2024/03/18 01:10:41;;;;;;;1999.90;999.90;;;22.40;99.90;;;;;;5015333;28;20485;-72
2024/03/18 01:13:11;;;;;;;1999.90;999.90;;;22.40;99.90;;;;;;5015622;28;20384;-77
2024/03/18 01:15:37;;;;;;;1999.90;999.90;;;22.40;99.90;;;;;;5015659;28;20083;-77
2024/03/18 01:18:05;;;;;;;1999.90;999.90;;;22.40;99.90;;;;;;5015416;28;20033;-76
2024/03/18 01:20:32;;;;;;;1999.90;999.90;;;22.30;99.90;;;;;;5015080;28;20036;-77
2024/03/18 01:22:59;;;;;;;1999.90;999.90;;;22.30;99.90;;;;;;5004763;28;20482;-71
2024/03/18 01:25:25;;;;;;;1999.90;999.90;;;22.30;99.90;;;;;;4996264;28;20053;-72
2024/03/18 01:27:51;;;;;;;1999.90;999.90;;;22.30;99.90;;;;;;4995908;28;20454;-72
2024/03/18 01:30:18;;;;;;;1999.90;999.90;;;22.20;99.90;;;;;;5014087;28;20131;-77
2024/03/18 01:32:43;;;;;;;1999.90;999.90;;;22.20;99.90;;;;;;5015319;28;20032;-77
2024/03/18 01:35:12;;;;;;;1999.90;999.90;;;22.20;99.90;;;;;;5015133;28;20493;-72
2024/03/18 01:37:38;;;;;;;1999.90;999.90;;;22.10;99.90;;;;;;5014848;28;20034;-72
2024/03/18 01:40:10;;;;;;;1999.90;999.90;;;22.10;99.90;;;;;;5014912;28;20022;-72
2024/03/18 01:42:36;;;;;;;1999.90;999.90;;;22.00;99.90;;;;;;5014931;28;20504;-71
2024/03/18 01:45:03;;;;;;;1999.90;999.90;;;22.00;99.90;;;;;;5015018;28;20026;-76
2024/03/18 01:47:29;;;;;;;1999.90;999.90;;;21.90;99.90;;;;;;5015492;28;20025;-71
2024/03/18 01:49:55;;;;;;;1999.90;999.90;;;21.80;99.90;;;;;;5015167;28;20042;-71
2024/03/18 01:52:21;;;;;;;1999.90;999.90;;;21.70;99.90;;;;;;5013847;28;20037;-77
2024/03/18 01:54:47;;;;;;;1999.90;999.90;;;21.70;99.90;;;;;;5014906;28;20117;-77
2024/03/18 01:57:14;;;;;;;1999.90;999.90;;;21.60;99.90;;;;;;5014403;28;20038;-77
2024/03/18 01:59:40;;;;;;;1999.90;999.90;;;21.50;99.90;;;;;;5014746;28;20081;-71
2024/03/18 02:02:06;;;;;;;1999.90;999.90;;;21.40;99.90;;;;;;5014775;28;20504;-71
2024/03/18 02:04:32;;;;;;;1999.90;999.90;;;21.40;99.90;;;;;;5014700;28;20033;-72
2024/03/18 02:06:57;;;;;;;1999.90;999.90;;;21.30;99.90;;;;;;5014441;28;20029;-77
2024/03/18 02:09:25;;;;;;;1999.90;999.90;;;21.20;99.90;;;;;;5014358;28;20068;-76
2024/03/18 02:11:51;;;;;;;1999.90;999.90;;;21.10;99.90;;;;;;5013152;28;20030;-76
2024/03/18 02:14:17;;;;;;;1999.90;999.90;;;21.10;99.90;;;;;;5014234;28;20044;-71
2024/03/18 02:16:43;;;;;;;1999.90;999.90;;;20.90;99.90;;;;;;5014327;28;20021;-76
2024/03/18 02:19:09;;;;;;;1999.90;999.90;;;20.90;99.90;;;;;;5012859;28;20018;-76
2024/03/18 02:21:35;;;;;;;1999.90;999.90;;;20.80;99.90;;;;;;5013876;28;20088;-76
2024/03/18 02:24:06;;;;;;;1999.90;999.90;;;20.70;99.90;;;;;;4995163;28;20464;-76
2024/03/18 02:26:35;;;;;;;1999.90;999.90;;;20.60;99.90;;;;;;4994626;28;20026;-71
2024/03/18 02:29:01;;;;;;;1999.90;999.90;;;20.50;99.90;;;;;;5003285;28;20028;-71
2024/03/18 02:31:27;;;;;;;1999.90;999.90;;;20.50;99.90;;;;;;5013955;28;20033;-77
2024/03/18 02:33:53;;;;;;;1999.90;999.90;;;20.40;99.90;;;;;;5014181;28;20022;-76
2024/03/18 02:36:18;;;;;;;1999.90;999.90;;;20.40;99.90;;;;;;5013780;28;20033;-77
2024/03/18 02:38:44;;;;;;;1999.90;999.90;;;20.40;99.90;;;;;;5008936;28;20398;-71
2024/03/18 02:41:11;;;;;;;1999.90;999.90;;;20.40;99.90;;;;;;4994125;28;20113;-71
2024/03/18 02:43:36;;;;;;;1999.90;999.90;;;20.40;99.90;;;;;;4994125;28;20019;-71
2024/03/18 02:46:04;;;;;;;1999.90;999.90;;;20.30;99.90;;;;;;4997246;28;20156;-71
2024/03/18 02:48:30;;;;;;;1999.90;999.90;;;20.30;99.90;;;;;;5013730;28;20029;-77
2024/03/18 02:50:56;;;;;;;1999.90;999.90;;;20.30;99.90;;;;;;5014322;28;20084;-77
2024/03/18 02:53:22;;;;;;;1999.90;999.90;;;20.30;99.90;;;;;;5013805;28;20053;-77
2024/03/18 02:55:48;;;;;;;1999.90;999.90;;;20.30;99.90;;;;;;5013139;28;20121;-71
2024/03/18 02:58:14;;;;;;;1999.90;999.90;;;20.20;99.90;;;;;;5013681;28;20037;-76
2024/03/18 03:00:39;;;;;;;1999.90;999.90;;;20.20;99.90;;;;;;5013449;28;20046;-77
2024/03/18 03:03:05;;;;;;;1999.90;999.90;;;20.10;99.90;;;;;;5011335;28;20022;-76
2024/03/18 03:05:31;;;;;;;1999.90;999.90;;;20.00;99.90;;;;;;5012890;28;20120;-71
2024/03/18 03:07:56;;;;;;;1999.90;999.90;;;20.00;99.90;;;;;;5013412;28;20088;-76
2024/03/18 03:10:22;;;;;;;1999.90;999.90;;;20.00;99.90;;;;;;5013028;28;20091;-77
2024/03/18 03:12:48;;;;;;;1999.90;999.90;;;20.00;99.90;;;;;;5013171;28;20101;-76
2024/03/18 03:15:14;;;;;;;1999.90;999.90;;;20.00;99.90;;;;;;5013384;28;20022;-76
2024/03/18 03:17:40;;;;;;;1999.90;999.90;;;20.00;99.90;;;;;;5013377;28;20100;-76
2024/03/18 03:20:08;;;;;;;1999.90;999.90;;;20.00;99.90;;;;;;5012860;28;20026;-71
2024/03/18 03:22:35;;;;;;;1999.90;999.90;;;20.00;99.90;;;;;;5006006;28;20425;-71
2024/03/18 03:25:01;;;;;;;1999.90;999.90;;;20.10;99.90;;;;;;4993584;28;20057;-76
2024/03/18 03:27:27;;;;;;;1999.90;999.90;;;20.10;99.90;;;;;;4993666;28;20054;-71
2024/03/18 03:29:53;;;;;;;1999.90;999.90;;;20.20;99.90;;;;;;5008997;28;20057;-71
2024/03/18 03:32:19;;;;;;;1999.90;999.90;;;20.20;99.90;;;;;;5012740;28;20026;-71
2024/03/18 03:34:45;;;;;;;1999.90;999.90;;;20.20;99.90;;;;;;5011806;28;20088;-71
2024/03/18 03:37:10;;;;;;;1999.90;999.90;;;20.10;99.90;;;;;;5012963;28;20029;-71
2024/03/18 03:39:36;;;;;;;1999.90;999.90;;;20.00;99.90;;;;;;5012772;28;20029;-76
2024/03/18 03:42:06;;;;;;;1999.90;999.90;;;20.00;99.90;;;;;;5013135;28;20018;-76
2024/03/18 03:44:32;;;;;;;1999.90;999.90;;;20.00;99.90;;;;;;5012780;28;20030;-71
2024/03/18 03:46:58;;;;;;;1999.90;999.90;;;19.90;99.90;;;;;;5013529;28;20499;-71
2024/03/18 03:49:25;;;;;;;1999.90;999.90;;;19.80;99.90;;;;;;5011604;28;20097;-76
2024/03/18 03:51:51;;;;;;;1999.90;999.90;;;19.60;99.90;;;;;;5013314;28;20025;-76
2024/03/18 03:54:17;;;;;;;1999.90;999.90;;;19.50;99.90;;;;;;5012594;28;20038;-76
2024/03/18 03:56:42;;;;;;;1999.90;999.90;;;19.50;99.90;;;;;;5012739;28;20030;-71
2024/03/18 03:59:08;;;;;;;1999.90;999.90;;;19.40;99.90;;;;;;5012192;28;20026;-71
2024/03/18 04:01:34;;;;;;;1999.90;999.90;;;19.40;99.90;;;;;;5012593;28;20113;-71
2024/03/18 04:03:59;;;;;;;1999.90;999.90;;;19.30;99.90;;;;;;5011561;28;20037;-71
2024/03/18 04:06:25;;;;;;;1999.90;999.90;;;19.20;99.90;;;;;;5012629;28;20033;-71
2024/03/18 04:08:50;;;;;;;1999.90;999.90;;;19.20;99.90;;;;;;5012943;28;20029;-76
2024/03/18 04:11:17;;;;;;;1999.90;999.90;;;19.20;99.90;;;;;;5013059;28;20481;-71
2024/03/18 04:13:43;;;;;;;1999.90;999.90;;;19.20;99.90;;;;;;5013566;28;20033;-71
2024/03/18 04:16:09;;;;;;;1999.90;999.90;;;19.20;99.90;;;;;;5016521;28;20501;-76
2024/03/18 04:18:35;;;;;;;1999.90;999.90;;;19.20;99.90;;;;;;5016433;28;20084;-76
2024/03/18 04:21:03;;;;;;;1999.90;999.90;;;19.10;99.90;;;;;;5016064;28;20026;-71
2024/03/18 04:23:29;;;;;;;1999.90;999.90;;;19.10;99.90;;;;;;5001694;28;20110;-71
2024/03/18 04:25:56;;;;;;;1999.90;999.90;;;19.00;99.90;;;;;;4996721;28;20026;-71
2024/03/18 04:28:22;;;;;;;1999.90;999.90;;;18.90;99.90;;;;;;4999466;28;20444;-76
2024/03/18 04:30:48;;;;;;;1999.90;999.90;;;19.00;99.90;;;;;;5016299;28;20022;-76
2024/03/18 04:33:13;;;;;;;1999.90;999.90;;;19.00;99.90;;;;;;5016084;28;20034;-76
2024/03/18 04:35:39;;;;;;;1999.90;999.90;;;18.90;99.90;;;;;;5016561;28;20064;-71
2024/03/18 04:38:05;;;;;;;1999.90;999.90;;;18.90;99.90;;;;;;5016152;28;20025;-71
2024/03/18 04:40:31;;;;;;;1999.90;999.90;;;18.90;99.90;;;;;;5015715;28;20030;-71
2024/03/18 04:42:56;;;;;;;1999.90;999.90;;;19.00;99.90;;;;;;5016090;28;20029;-76
2024/03/18 04:45:22;;;;;;;1999.90;999.90;;;19.00;99.90;;;;;;5015461;28;20021;-71
2024/03/18 04:47:52;;;;;;;1999.90;999.90;;;19.10;99.90;;;;;;5015624;28;20493;-77
2024/03/18 04:50:22;;;;;;;1999.90;999.90;;;19.10;99.90;;;;;;5015409;28;20029;-71
2024/03/18 04:52:49;;;;;;;1999.90;999.90;;;19.20;99.90;;;;;;5016145;28;20115;-71
2024/03/18 04:55:16;;;;;;;1999.90;999.90;;;19.20;99.90;;;;;;5016005;28;20137;-71
2024/03/18 04:57:42;;;;;;;1999.90;999.90;;;19.30;99.90;;;;;;5015747;28;20030;-77
2024/03/18 05:00:11;;;;;;;1999.90;999.90;;;19.40;99.90;;;;;;5015673;28;20054;-76
2024/03/18 05:02:40;;;;;;;1999.90;999.90;;;19.40;99.90;;;;;;5015928;28;20022;-71
2024/03/18 05:05:07;;;;;;;1999.90;999.90;;;19.50;99.90;;;;;;5015772;28;20049;-71
2024/03/18 05:07:33;;;;;;;1999.90;999.90;;;19.50;99.90;;;;;;5015971;28;20424;-77
2024/03/18 05:09:59;;;;;;;1999.90;999.90;;;19.60;99.90;;;;;;5015764;28;20026;-77
2024/03/18 05:12:25;;;;;;;1999.90;999.90;;;19.60;99.90;;;;;;5015484;28;20022;-77
2024/03/18 05:14:51;;;;;;;1999.90;999.90;;;19.70;99.90;;;;;;5015784;28;20474;-72
2024/03/18 05:17:17;;;;;;;1999.90;999.90;;;19.80;99.90;;;;;;5015555;28;20025;-71
2024/03/18 05:19:43;;;;;;;1999.90;999.90;;;19.80;99.90;;;;;;5015100;28;20026;-72
2024/03/18 05:22:12;;;;;;;1999.90;999.90;;;19.90;99.90;;;;;;5011592;28;20398;-77
2024/03/18 05:24:43;;;;;;;1999.90;999.90;;;19.90;99.90;;;;;;4995449;28;20030;-71
2024/03/18 05:27:12;;;;;;;1999.90;999.90;;;20.00;99.90;;;;;;4994820;28;20482;-76
2024/03/18 05:29:38;;;;;;;1999.90;999.90;;;20.00;99.90;;;;;;5009323;28;20018;-71
2024/03/18 05:32:09;;;;;;;1999.90;999.90;;;20.00;99.90;;;;;;5014969;28;20552;-71
2024/03/18 05:34:35;;;;;;;1999.90;999.90;;;20.10;99.90;;;;;;5014951;28;20069;-71
2024/03/18 05:37:01;;;;;;;1999.90;999.90;;;20.00;99.90;;;;;;5015059;28;20517;-77
2024/03/18 05:39:30;;;;;;;1999.90;999.90;;;20.00;99.90;;;;;;5014743;28;20025;-77
2024/03/18 05:41:56;;;;;;;1999.90;999.90;;;19.90;99.90;;;;;;5014925;28;20105;-72
2024/03/18 05:44:22;;;;;;;1999.90;999.90;;;19.90;99.90;;;;;;5014732;28;20511;-72
2024/03/18 05:46:48;;;;;;;1999.90;999.90;;;19.90;99.90;;;;;;5013776;28;20374;-77
2024/03/18 05:49:13;;;;;;;1999.90;999.90;;;19.80;99.90;;;;;;5014773;28;20033;-77
2024/03/18 05:51:39;;;;;;;1999.90;999.90;;;19.70;99.90;;;;;;5014924;28;20037;-77
2024/03/18 05:54:04;;;;;;;1999.90;999.90;;;19.60;99.90;;;;;;5014662;28;20034;-71
2024/03/18 05:56:31;;;;;;;1999.90;999.90;;;19.50;99.90;;;;;;5014538;28;20028;-77
2024/03/18 05:58:57;;;;;;;1999.90;999.90;;;19.50;99.90;;;;;;5014703;28;20025;-76
2024/03/18 06:01:22;;;;;;;1999.90;999.90;;;19.40;99.90;;;;;;5007577;28;20046;-77
2024/03/18 06:03:48;;;;;;;1999.90;999.90;;;19.40;99.90;;;;;;5014929;28;20033;-77
2024/03/18 06:06:14;;;;;;;1999.90;999.90;;;19.30;99.90;;;;;;5014126;28;20029;-71
2024/03/18 06:08:39;;;;;;;1999.90;999.90;;;19.30;99.90;;;;;;5014181;28;20098;-71
2024/03/18 06:11:05;;;;;;;1999.90;999.90;;;19.30;99.90;;;;;;5030102;28;20143;-71
2024/03/18 06:13:32;;;;;;;1999.90;999.90;;;19.10;99.90;;;;;;5034041;28;20029;-77
2024/03/18 06:15:58;;;;;;;1999.90;999.90;;;19.10;99.90;;;;;;5033987;28;20029;-77
2024/03/18 06:18:23;;;;;;;1999.90;999.90;;;19.00;99.90;;;;;;5033819;28;20040;-77
2024/03/18 06:20:54;;;;;;;1999.90;999.90;;;18.90;99.90;;;;;;5022853;28;20025;-77
2024/03/18 06:23:22;;;;;;;1999.90;999.90;;;18.80;99.90;;;;;;4999257;28;20030;-76
2024/03/18 06:25:58;;;;;;;1999.90;999.90;;;18.80;99.90;;;;;;5007110;28;20022;-77
2024/03/18 06:28:31;;;;;;;1999.90;999.90;;;18.70;99.90;;;;;;5004529;28;20093;-76
2024/03/18 06:30:57;;;;;;;1999.90;999.90;;;18.60;99.90;;;;;;5009880;28;20036;-76
2024/03/18 06:33:24;;;;;;;1999.90;999.90;;;18.50;99.90;;;;;;5014244;28;20034;-71
2024/03/18 06:35:56;;;;;;;1999.90;999.90;;;18.50;99.90;;;;;;4993474;28;20026;-71
2024/03/18 06:38:22;;;;;;;1999.90;999.90;;;18.30;99.90;;;;;;4999807;28;20034;-75
2024/03/18 06:40:49;;;;;;;1999.90;999.90;;;18.30;99.90;;;;;;5004396;28;20025;-75
2024/03/18 06:43:18;;;;;;;1999.90;999.90;;;18.20;99.90;;;;;;5009550;28;20450;-75
2024/03/18 06:45:44;;;;;;;1999.90;999.90;;;18.10;99.90;;;;;;5012444;28;20534;-77
2024/03/18 06:48:11;;;;;;;1999.90;999.90;;;18.00;99.90;;;;;;5010854;28;20060;-71
2024/03/18 06:50:38;;;;;;;1999.90;999.90;;;17.90;99.90;;;;;;5011152;28;20118;-72
2024/03/18 06:53:04;;;;;;;1999.90;999.90;;;17.80;99.90;;;;;;5014302;28;20026;-77
2024/03/18 06:55:30;;;;;;;1999.90;999.90;;;17.80;99.90;;;;;;5014211;28;20097;-76
2024/03/18 06:57:57;;;;;;;1999.90;999.90;;;17.70;99.90;;;;;;5028201;28;20082;-77
2024/03/18 07:00:25;;;;;;;1999.90;999.90;;;17.60;99.90;;;;;;5012430;28;20417;-76
2024/03/18 07:02:52;;;;;;;1999.90;999.90;;;17.50;99.90;;;;;;5010858;28;20029;-72
2024/03/18 07:05:21;;;;;;;1999.90;999.90;;;17.50;99.90;;;;;;5007051;28;20028;-76
2024/03/18 07:07:47;;;;;;;1999.90;999.90;;;17.40;99.90;;;;;;5011605;28;20030;-71
2024/03/18 07:10:13;;;;;;;1999.90;999.90;;;17.40;99.90;;;;;;5006172;28;20033;-75
2024/03/18 07:12:39;;;;;;;1999.90;999.90;;;17.30;99.90;;;;;;5009552;28;20033;-71
2024/03/18 07:15:07;;;;;;;1999.90;999.90;;;17.20;99.90;;;;;;5010386;28;20029;-76
2024/03/18 07:17:33;;;;;;;1999.90;999.90;;;17.20;99.90;;;;;;5011700;28;20508;-76
2024/03/18 07:19:59;;;;;;;1999.90;999.90;;;17.10;99.90;;;;;;5009806;28;20029;-75
2024/03/18 07:22:25;;;;;;;1999.90;999.90;;;17.10;99.90;;;;;;5011432;28;20033;-71
2024/03/18 07:24:51;;;;;;;1999.90;999.90;;;17.00;99.90;;;;;;5011834;28;20401;-71
2024/03/18 07:27:17;;;;;;;1999.90;999.90;;;17.10;99.90;;;;;;5011496;28;20053;-76
2024/03/18 07:29:43;;;;;;;1999.90;999.90;;;17.10;99.90;;;;;;5001524;28;20026;-71
2024/03/18 07:32:09;;;;;;;1999.90;999.90;;;17.00;99.90;;;;;;5013676;28;20499;-71
2024/03/18 07:34:36;;;;;;;1999.90;999.90;;;17.00;99.90;;;;;;5025422;28;20489;-78
2024/03/18 07:37:02;;;;;;;1999.90;999.90;;;16.90;99.90;;;;;;5011719;28;20054;-78
2024/03/18 07:39:28;;;;;;;1999.90;999.90;;;16.80;99.90;;;;;;5010509;28;20073;-72
2024/03/18 07:41:56;;;;;;;1999.90;999.90;;;16.60;99.90;;;;;;5010435;28;20021;-72
2024/03/18 07:44:22;;;;;;;1999.90;999.90;;;16.30;99.90;;;;;;5007803;28;20018;-78
2024/03/18 07:46:47;;;;;;;1999.90;999.90;;;16.20;99.90;;;;;;5009690;28;20084;-72
2024/03/18 07:49:14;;;;;;;1999.90;999.90;;;16.10;99.90;;;;;;5014033;28;20034;-78
2024/03/18 07:51:39;;;;;;;1999.90;999.90;;;15.80;99.90;;;;;;5017361;28;20029;-72
2024/03/18 07:54:05;;;;;;;1999.90;999.90;;;15.60;99.90;;;;;;5014421;28;20120;-72
2024/03/18 07:56:31;;;;;;;1999.90;999.90;;;15.30;99.90;;;;;;5016051;28;20026;-78
2024/03/18 07:58:58;;;;;;;1999.90;999.90;;;15.20;99.90;;;;;;5015697;28;20105;-78
2024/03/18 08:01:25;;;;;;;1999.90;999.90;;;15.30;99.90;;;;;;5016753;28;20100;-78
2024/03/18 08:03:53;;;;;;;1999.90;999.90;;;15.20;99.90;;;;;;5012339;28;20041;-71
2024/03/18 08:06:19;;;;;;;1999.90;999.90;;;15.10;99.90;;;;;;5018375;28;20033;-78
2024/03/18 08:08:45;;;;;;;1999.90;999.90;;;15.10;99.90;;;;;;5014184;28;20451;-72
2024/03/18 08:11:10;;;;;;;1999.90;999.90;;;15.40;99.90;;;;;;5023333;28;20394;-72
2024/03/18 08:13:36;;;;;;;1999.90;999.90;;;15.50;99.90;;;;;;5026359;28;20029;-74
2024/03/18 08:16:02;;;;;;;1999.90;999.90;;;15.00;99.90;;;;;;5015811;28;20030;-77
2024/03/18 08:18:28;;;;;;;1999.90;999.90;;;14.80;99.90;;;;;;5017494;28;20037;-72
2024/03/18 08:20:54;;;;;;;1999.90;999.90;;;14.80;99.90;;;;;;5015445;28;20038;-74
2024/03/18 08:23:20;;;;;;;1999.90;999.90;;;15.30;99.90;;;;;;5017505;28;20080;-79
2024/03/18 08:25:45;;;;;;;1999.90;999.90;;;15.80;99.90;;;;;;5015948;28;20510;-79
2024/03/18 08:28:11;;;;;;;1999.90;999.90;;;14.70;99.90;;;;;;5012659;28;20087;-69
2024/03/18 08:30:37;;;;;;;1999.90;999.90;;;14.30;99.90;;;;;;5010874;28;20117;-70
2024/03/18 08:33:05;;;;;;;1999.90;999.90;;;14.10;99.90;;;;;;5015907;28;20037;-71
2024/03/18 08:35:31;;;;;;;1999.90;999.90;;;14.00;99.90;;;;;;5025337;28;20026;-79
2024/03/18 08:37:57;;;;;;;1999.90;999.90;;;14.10;99.90;;;;;;5030837;28;20104;-77
2024/03/18 08:40:23;;;;;;;1999.90;999.90;;;14.40;99.90;;;;;;5015737;28;20468;-71
2024/03/18 08:42:49;;;;;;;1999.90;999.90;;;15.40;99.90;;;;;;5016377;28;20052;-77
2024/03/18 08:45:14;;;;;;;1999.90;999.90;;;15.30;99.90;;;;;;5028611;28;20034;-77
2024/03/18 08:47:40;;;;;;;1999.90;999.90;;;14.80;99.90;;;;;;5016660;28;20022;-70
2024/03/18 08:50:06;;;;;;;1999.90;999.90;;;14.60;99.90;;;;;;5028087;28;20148;-71
2024/03/18 08:52:32;;;;;;;1999.90;999.90;;;14.10;99.90;;;;;;5032153;28;20060;-75
2024/03/18 08:54:57;;;;;;;1999.90;999.90;;;14.10;99.90;;;;;;5018378;28;20499;-75
2024/03/18 08:57:23;;;;;;;1999.90;999.90;;;14.40;99.90;;;;;;5026025;28;20033;-71
2024/03/18 08:59:49;;;;;;;1999.90;999.90;;;14.70;99.90;;;;;;5021868;28;20515;-71
2024/03/18 09:02:15;;;;;;;1999.90;999.90;;;14.60;99.90;;;;;;5011979;28;20129;-77
2024/03/18 09:04:40;;;;;;;1999.90;999.90;;;15.20;99.90;;;;;;5028257;28;20030;-77
2024/03/18 09:07:07;;;;;;;1999.90;999.90;;;15.60;99.90;;;;;;5015788;28;20026;-76
2024/03/18 09:09:36;;;;;;;1999.90;999.90;;;15.30;99.90;;;;;;5023423;28;20026;-72
2024/03/18 09:12:02;;;;;;;1999.90;999.90;;;15.20;99.90;;;;;;5025140;28;20029;-71
2024/03/18 09:14:29;;;;;;;1999.90;999.90;;;15.60;99.90;;;;;;5025403;28;20033;-71
2024/03/18 09:16:54;;;;;;;1999.90;999.90;;;15.50;99.90;;;;;;5014831;28;20496;-77
2024/03/18 09:19:21;;;;;;;1999.90;999.90;;;15.40;99.90;;;;;;5024069;28;20150;-72
2024/03/18 09:21:47;;;;;;;1999.90;999.90;;;16.20;99.90;;;;;;5021887;28;20511;-75
2024/03/18 09:24:14;;;;;;;1999.90;999.90;;;15.80;99.90;;;;;;5016880;28;20018;-72
2024/03/18 09:26:40;;;;;;;1999.90;999.90;;;17.10;99.90;;;;;;5027778;28;20431;-72
2024/03/18 09:29:06;;;;;;;1999.90;999.90;;;18.20;99.90;;;;;;5012455;28;20053;-76
2024/03/18 09:31:32;;;;;;;1999.90;999.90;;;18.40;99.90;;;;;;5011201;28;20111;-76
2024/03/18 09:33:58;;;;;;;1999.90;999.90;;;17.60;99.90;;;;;;5019681;28;20038;-76
2024/03/18 09:36:24;;;;;;;1999.90;999.90;;;16.70;99.90;;;;;;5027076;28;20036;-73
2024/03/18 09:38:49;;;;;;;1999.90;999.90;;;16.20;99.90;;;;;;5012473;28;20503;-73
2024/03/18 09:41:18;;;;;;;1999.90;999.90;;;16.40;99.90;;;;;;5009805;28;20067;-76
2024/03/18 09:43:45;;;;;;;1999.90;999.90;;;18.50;99.90;;;;;;5020634;28;20040;-76
2024/03/18 09:46:15;;;;;;;1999.90;999.90;;;20.40;99.90;;;;;;5012127;28;20030;-76
2024/03/18 09:48:41;;;;;;;1999.90;999.90;;;21.30;99.90;;;;;;5002595;28;20022;-73
2024/03/18 09:51:15;;;;;;;1999.90;999.90;;;20.60;99.90;;;;;;5005952;28;20281;-73
2024/03/18 09:53:45;;;;;;;1999.90;999.90;;;19.10;99.90;;;;;;5008677;28;20539;-76
2024/03/18 09:56:14;;;;;;;1999.90;999.90;;;18.20;99.90;;;;;;5009656;28;20044;-73
2024/03/18 09:58:39;;;;;;;1999.90;999.90;;;18.00;99.90;;;;;;5010561;28;20041;-76
2024/03/18 10:01:06;;;;;;;1999.90;999.90;;;17.10;99.90;;;;;;5005788;28;20512;-73
2024/03/18 10:03:32;;;;;;;1999.90;999.90;;;16.30;99.90;;;;;;5010680;28;20022;-73
2024/03/18 10:05:58;;;;;;;1999.90;999.90;;;16.60;99.90;;;;;;5012274;28;20029;-76
2024/03/18 10:08:24;;;;;;;1999.90;999.90;;;16.90;99.90;;;;;;5017490;28;20643;-76
2024/03/18 10:10:51;;;;;;;1999.90;999.90;;;17.30;99.90;;;;;;5009155;28;20041;-77
2024/03/18 10:13:23;;;;;;;1999.90;999.90;;;17.70;99.90;;;;;;5013694;28;20029;-78
2024/03/18 10:15:52;;;;;;;1999.90;999.90;;;17.60;99.90;;;;;;5021147;28;20522;-73
2024/03/18 10:18:19;;;;;;;1999.90;999.90;;;17.10;99.90;;;;;;5010755;28;20065;-77
2024/03/18 10:20:44;;;;;;;1999.90;999.90;;;16.60;99.90;;;;;;5012178;28;20034;-77
2024/03/18 10:23:13;;;;;;;1999.90;999.90;;;16.30;99.90;;;;;;5017939;28;20045;-76
2024/03/18 10:25:40;;;;;;;1999.90;999.90;;;16.20;99.90;;;;;;5019995;28;20079;-77
2024/03/18 10:28:07;;;;;;;1999.90;999.90;;;16.80;99.90;;;;;;5014859;28;20497;-75
2024/03/18 10:30:36;;;;;;;1999.90;999.90;;;17.20;99.90;;;;;;5006959;28;20026;-72
2024/03/18 10:33:06;;;;;;;1999.90;999.90;;;17.00;99.90;;;;;;5018462;28;20026;-74
2024/03/18 10:35:34;;;;;;;1999.90;999.90;;;16.80;99.90;;;;;;5017763;28;20033;-75
2024/03/18 10:38:03;;;;;;;1999.90;999.90;;;16.60;99.90;;;;;;5011999;28;20866;-74
2024/03/18 10:40:34;;;;;;;1999.90;999.90;;;16.50;99.90;;;;;;5013088;28;20057;-73
2024/03/18 10:43:08;;;;;;;1999.90;999.90;;;16.80;99.90;;;;;;5010860;28;20030;-75
2024/03/18 10:45:36;;;;;;;1999.90;999.90;;;16.80;99.90;;;;;;5018086;28;20009;-75
2024/03/18 10:48:07;;;;;;;1999.90;999.90;;;16.30;99.90;;;;;;5014049;28;20401;-73
2024/03/18 10:50:34;;;;;;;1999.90;999.90;;;16.00;99.90;;;;;;5022064;28;20026;-73
2024/03/18 10:53:01;;;;;;;1999.90;999.90;;;16.20;99.90;;;;;;5025561;28;20481;-73
2024/03/18 10:55:30;;;;;;;1999.90;999.90;;;16.40;99.90;;;;;;5014418;28;20025;-72
2024/03/18 10:57:59;;;;;;;1999.90;999.90;;;16.50;99.90;;;;;;5021362;28;20040;-72
2024/03/18 11:00:25;;;;;;;1999.90;999.90;;;16.60;99.90;;;;;;5014606;28;20046;-74
2024/03/18 11:03:03;;;;;;;1999.90;999.90;;;16.50;99.90;;;;;;5012878;28;20096;-74
2024/03/18 11:05:33;;;;;;;1999.90;999.90;;;16.20;99.90;;;;;;5019581;28;20029;-73
2024/03/18 11:08:05;;;;;;;1999.90;999.90;;;16.30;99.90;;;;;;5017772;28;20022;-72
2024/03/18 11:10:35;;;;;;;1999.90;999.90;;;16.30;99.90;;;;;;5020421;28;20137;-72
2024/03/18 11:13:14;;;;;;;1999.90;999.90;;;17.00;99.90;;;;;;5014526;28;20120;-74
2024/03/18 11:15:51;;;;;;;1999.90;999.90;;;17.10;99.90;;;;;;5013838;28;20032;-75
2024/03/18 11:18:19;;;;;;;1999.90;999.90;;;16.40;99.90;;;;;;5014575;28;20109;-74
2024/03/18 11:20:46;;;;;;;1999.90;999.90;;;16.60;99.90;;;;;;5016403;28;20038;-71
2024/03/18 11:23:19;;;;;;;1999.90;999.90;;;16.50;99.90;;;;;;5018245;28;20017;-72
2024/03/18 11:25:54;;;;;;;1999.90;999.90;;;16.60;99.90;;;;;;5014508;28;20040;-73
2024/03/18 11:28:21;;;;;;;1999.90;999.90;;;16.80;99.90;;;;;;5016335;28;20403;-76
2024/03/18 11:30:50;;;;;;;1999.90;999.90;;;17.10;99.90;;;;;;5009896;28;20037;-76
2024/03/18 11:33:16;;;;;;;1999.90;999.90;;;16.60;99.90;;;;;;5009447;28;20026;-76
2024/03/18 11:35:42;;;;;;;1999.90;999.90;;;16.10;99.90;;;;;;5017243;28;20407;-72
2024/03/18 11:38:17;;;;;;;1999.90;999.90;;;16.30;99.90;;;;;;5017295;28;20091;-76
2024/03/18 11:40:43;;;;;;;1999.90;999.90;;;16.40;99.90;;;;;;5014995;28;20104;-73
2024/03/18 11:43:09;;;;;;;1999.90;999.90;;;16.60;99.90;;;;;;5011294;28;20476;-77
2024/03/18 11:45:36;;;;;;;1999.90;999.90;;;16.60;99.90;;;;;;5020584;28;20447;-77
2024/03/18 11:48:06;;;;;;;1999.90;999.90;;;16.60;99.90;;;;;;5018303;28;20037;-73
2024/03/18 11:50:41;;;;;;;1999.90;999.90;;;16.80;99.90;;;;;;5006200;28;20451;-72
2024/03/18 11:53:08;;;;;;;1999.90;999.90;;;17.10;99.90;;;;;;5025652;28;20101;-76
2024/03/18 11:55:36;;;;;;;1999.90;999.90;;;17.00;99.90;;;;;;5014861;28;20034;-73
2024/03/18 11:58:03;;;;;;;1999.90;999.90;;;16.40;99.90;;;;;;5007453;28;20034;-73
2024/03/18 12:00:33;;;;;;;1999.90;999.90;;;16.30;99.90;;;;;;5019523;28;20513;-72